Time;durP1;ratioP1;P1;durP2;ratioP2;P2;SDS_P1;SDS_P2;PMS_P1;PMS_P2;Temp;Humidity;BMP_temperature;BMP_pressure;BME280_temperature;BME280_humidity;BME280_pressure;Samples;Min_cycle;Max_cycle;Signal;HPM_P1;HPM_P2
2021/09/23 00:02:13;;;;;;;59.47;34.97;;;;;;;11.13;88.33;102390.00;5053666;28;20029;-74
2021/09/23 00:04:39;;;;;;;68.85;37.42;;;;;;;11.10;88.85;102391.03;5052914;28;20039;-75
2021/09/23 00:07:05;;;;;;;75.57;39.17;;;;;;;11.13;89.64;102387.31;5052183;28;20068;-75
2021/09/23 00:09:30;;;;;;;66.93;37.63;;;;;;;11.19;89.11;102381.56;5053387;28;20072;-75
2021/09/23 00:11:56;;;;;;;80.53;41.72;;;;;;;11.24;89.12;102376.75;5053274;28;20028;-75
2021/09/23 00:14:21;;;;;;;72.18;39.35;;;;;;;11.27;89.35;102377.44;5053337;28;20039;-74
2021/09/23 00:16:47;;;;;;;64.38;37.78;;;;;;;11.29;89.28;102377.31;5052516;28;20064;-75
2021/09/23 00:19:12;;;;;;;78.60;38.72;;;;;;;11.32;89.42;102374.44;5052204;28;20033;-74
2021/09/23 00:21:38;;;;;;;67.88;37.47;;;;;;;11.38;88.55;102378.50;5052672;28;20040;-75
2021/09/23 00:24:03;;;;;;;69.88;39.25;;;;;;;11.41;88.66;102368.47;5053169;28;20033;-74
2021/09/23 00:26:29;;;;;;;65.68;36.25;;;;;;;11.40;88.09;102369.41;5052903;28;20029;-74
2021/09/23 00:28:54;;;;;;;72.82;38.63;;;;;;;11.40;88.56;102365.91;5052336;28;20063;-74
2021/09/23 00:31:20;;;;;;;67.80;38.17;;;;;;;11.39;88.36;102372.19;5052917;28;20520;-74
2021/09/23 00:33:45;;;;;;;62.55;35.00;;;;;;;11.35;88.39;102366.22;5052163;28;20025;-75
2021/09/23 00:36:10;;;;;;;62.08;35.38;;;;;;;11.37;88.15;102374.13;5053107;28;20037;-75
2021/09/23 00:38:36;;;;;;;74.72;37.38;;;;;;;11.37;88.11;102368.78;5052388;28;20086;-75
2021/09/23 00:41:01;;;;;;;71.95;38.22;;;;;;;11.34;88.33;102369.84;5052919;28;20111;-74
2021/09/23 00:43:27;;;;;;;63.17;35.85;;;;;;;11.26;88.08;102375.72;5052964;28;20040;-75
2021/09/23 00:45:52;;;;;;;68.80;36.53;;;;;;;11.25;88.38;102374.00;5052043;28;20519;-75
2021/09/23 00:48:18;;;;;;;68.72;37.58;;;;;;;11.21;88.54;102372.53;5052751;28;20037;-75
2021/09/23 00:50:44;;;;;;;67.07;37.35;;;;;;;11.19;88.48;102365.59;5052165;28;20033;-75
2021/09/23 00:53:10;;;;;;;65.40;35.45;;;;;;;11.16;88.30;102371.97;5051739;28;20025;-75
2021/09/23 00:55:35;;;;;;;68.88;36.22;;;;;;;11.12;89.12;102362.47;5052708;28;20029;-74
2021/09/23 00:58:01;;;;;;;73.03;36.42;;;;;;;11.10;89.24;102359.06;5052591;28;20037;-74
2021/09/23 01:00:27;;;;;;;65.50;36.67;;;;;;;11.13;89.50;102361.53;5052874;28;20397;-74
2021/09/23 01:02:52;;;;;;;68.28;36.58;;;;;;;11.13;89.51;102353.53;5052465;28;20033;-74
2021/09/23 01:05:18;;;;;;;75.60;36.83;;;;;;;11.14;89.77;102343.72;5052942;28;20116;-74
2021/09/23 01:07:48;;;;;;;66.55;34.70;;;;;;;11.13;88.95;102344.69;5052012;28;20527;-75
2021/09/23 01:10:16;;;;;;;65.03;34.38;;;;;;;11.17;89.28;102341.72;5052671;28;20059;-74
2021/09/23 01:12:41;;;;;;;67.20;36.83;;;;;;;11.17;89.73;102341.72;5051595;28;20538;-74
2021/09/23 01:15:08;;;;;;;63.15;36.58;;;;;;;11.18;90.10;102337.22;5052475;28;20033;-74
2021/09/23 01:17:34;;;;;;;70.30;37.30;;;;;;;11.20;90.01;102338.00;5052448;28;20036;-74
2021/09/23 01:20:00;;;;;;;63.88;34.83;;;;;;;11.26;90.36;102329.56;5051779;28;20420;-74
2021/09/23 01:22:26;;;;;;;76.47;37.00;;;;;;;11.29;90.34;102321.38;5051508;28;20047;-74
2021/09/23 01:24:51;;;;;;;74.70;38.42;;;;;;;11.33;90.78;102327.31;5051814;28;20040;-75
2021/09/23 01:27:16;;;;;;;65.07;35.17;;;;;;;11.39;90.89;102330.41;5052402;28;20374;-74
2021/09/23 01:29:42;;;;;;;69.15;36.78;;;;;;;11.46;91.08;102334.38;5051799;28;20033;-75
2021/09/23 01:32:09;;;;;;;69.20;36.08;;;;;;;11.58;91.29;102342.44;5056544;28;20037;-74
2021/09/23 01:34:35;;;;;;;67.75;34.97;;;;;;;11.67;91.49;102344.44;5056429;28;20033;-74
2021/09/23 01:37:01;;;;;;;69.90;37.50;;;;;;;11.85;92.05;102336.94;5055732;28;20040;-74
2021/09/23 01:39:28;;;;;;;68.60;34.90;;;;;;;11.97;91.56;102321.88;5056261;28;20115;-74
2021/09/23 01:41:54;;;;;;;63.72;35.67;;;;;;;12.07;90.95;102308.72;5055737;28;20032;-74
2021/09/23 01:44:21;;;;;;;61.67;33.55;;;;;;;12.11;90.71;102312.88;5054921;28;20083;-74
2021/09/23 01:46:46;;;;;;;71.75;35.55;;;;;;;12.15;90.87;102317.00;5055510;28;20108;-74
2021/09/23 01:49:11;;;;;;;67.20;36.78;;;;;;;12.19;91.10;102305.16;5056016;28;20116;-74
2021/09/23 01:51:37;;;;;;;69.10;36.42;;;;;;;12.23;91.35;102298.63;5056090;28;20072;-74
2021/09/23 01:54:03;;;;;;;62.78;33.97;;;;;;;12.29;91.98;102290.16;5054112;28;20048;-74
2021/09/23 01:56:28;;;;;;;62.53;34.50;;;;;;;12.33;91.26;102280.97;5056015;28;20115;-74
2021/09/23 01:58:53;;;;;;;66.20;35.15;;;;;;;12.39;91.89;102278.78;5054839;28;20033;-75
2021/09/23 02:01:19;;;;;;;68.03;34.38;;;;;;;12.40;91.74;102272.50;5056038;28;20525;-74
2021/09/23 02:03:44;;;;;;;58.03;33.83;;;;;;;12.38;91.65;102274.44;5056043;28;20362;-74
2021/09/23 02:06:10;;;;;;;62.38;34.35;;;;;;;12.35;92.03;102265.69;5055229;28;20116;-74
2021/09/23 02:08:35;;;;;;;71.80;35.50;;;;;;;12.37;92.52;102256.72;5055767;28;20056;-74
2021/09/23 02:11:01;;;;;;;64.78;34.55;;;;;;;12.33;92.59;102254.28;5055069;28;20035;-75
2021/09/23 02:13:26;;;;;;;67.22;34.78;;;;;;;12.33;92.93;102253.41;5055888;28;20063;-74
2021/09/23 02:15:51;;;;;;;66.43;34.92;;;;;;;12.29;93.80;102246.63;5055121;28;20037;-75
2021/09/23 02:18:17;;;;;;;71.85;36.83;;;;;;;12.28;94.45;102237.75;5055581;28;20064;-74
2021/09/23 02:20:42;;;;;;;67.72;35.67;;;;;;;12.25;94.36;102231.81;5055598;28;20459;-74
2021/09/23 02:23:08;;;;;;;73.75;36.60;;;;;;;12.22;94.59;102221.38;5055155;28;20447;-74
2021/09/23 02:25:34;;;;;;;70.13;34.72;;;;;;;12.17;94.65;102225.22;5055332;28;20033;-74
2021/09/23 02:27:59;;;;;;;84.53;39.75;;;;;;;12.16;94.97;102225.34;5055438;28;20523;-75
2021/09/23 02:30:25;;;;;;;80.05;40.28;;;;;;;12.16;95.19;102220.84;5055537;28;20424;-74
2021/09/23 02:32:50;;;;;;;66.70;36.20;;;;;;;12.18;95.57;102215.38;5054814;28;20388;-75
2021/09/23 02:35:16;;;;;;;76.20;38.60;;;;;;;12.17;95.45;102203.88;5055432;28;20026;-74
2021/09/23 02:37:41;;;;;;;91.53;41.55;;;;;;;12.18;96.03;102207.38;5055966;28;20074;-75
2021/09/23 02:40:09;;;;;;;89.28;41.65;;;;;;;12.15;96.36;102204.94;5056663;28;20044;-74
2021/09/23 02:42:35;;;;;;;96.10;43.60;;;;;;;12.16;97.41;102202.16;5054698;28;20029;-75
2021/09/23 02:45:01;;;;;;;103.82;46.22;;;;;;;12.13;97.54;102180.22;5056243;28;20473;-74
2021/09/23 02:47:26;;;;;;;110.03;47.65;;;;;;;12.14;97.66;102196.09;5054294;28;20028;-75
2021/09/23 02:49:52;;;;;;;113.30;49.38;;;;;;;12.25;97.90;102189.94;5055126;28;20029;-75
2021/09/23 02:52:18;;;;;;;114.82;50.35;;;;;;;12.31;98.18;102188.63;5053828;28;20630;-75
2021/09/23 02:54:43;;;;;;;109.82;48.45;;;;;;;12.33;98.11;102195.56;5054883;28;20493;-74
2021/09/23 02:57:09;;;;;;;119.88;48.28;;;;;;;12.38;98.15;102195.22;5054036;28;20041;-75
2021/09/23 02:59:35;;;;;;;103.28;45.10;;;;;;;12.40;97.86;102189.75;5054512;28;20041;-74
2021/09/23 03:02:00;;;;;;;117.55;48.47;;;;;;;12.43;98.08;102192.19;5053816;28;20040;-75
2021/09/23 03:04:25;;;;;;;101.10;45.53;;;;;;;12.43;97.81;102184.16;5054802;28;20040;-75
2021/09/23 03:06:51;;;;;;;111.72;47.60;;;;;;;12.50;98.33;102193.41;5054726;28;20459;-75
2021/09/23 03:09:16;;;;;;;124.60;48.22;;;;;;;12.53;98.69;102183.34;5052680;28;20049;-74
2021/09/23 03:11:42;;;;;;;109.43;47.30;;;;;;;12.58;98.88;102188.31;5054581;28;20067;-75
2021/09/23 03:14:08;;;;;;;103.90;47.08;;;;;;;12.62;99.16;102188.94;5053904;28;20035;-75
2021/09/23 03:16:33;;;;;;;112.22;48.72;;;;;;;12.67;99.13;102174.28;5054200;28;20032;-74
2021/09/23 03:18:58;;;;;;;123.90;49.65;;;;;;;12.76;99.12;102171.81;5054120;28;20075;-75
2021/09/23 03:21:24;;;;;;;118.88;50.28;;;;;;;12.82;99.38;102172.22;5054445;28;20074;-75
2021/09/23 03:23:49;;;;;;;111.30;48.83;;;;;;;12.83;99.10;102168.53;5054270;28;20532;-75
2021/09/23 03:26:15;;;;;;;103.32;48.30;;;;;;;12.83;99.00;102163.19;5053430;28;20033;-75
2021/09/23 03:28:41;;;;;;;111.68;49.10;;;;;;;12.85;98.73;102163.09;5053883;28;20080;-75
2021/09/23 03:31:06;;;;;;;110.35;46.80;;;;;;;12.79;98.66;102164.41;5053746;28;20086;-75
2021/09/23 03:33:31;;;;;;;111.63;49.83;;;;;;;12.73;98.56;102156.88;5036342;28;20064;-74
2021/09/23 03:35:57;;;;;;;108.80;46.85;;;;;;;12.72;98.50;102159.69;5053858;28;20122;-74
2021/09/23 03:38:23;;;;;;;109.07;48.20;;;;;;;12.66;98.41;102159.22;5053589;28;20039;-75
2021/09/23 03:40:49;;;;;;;137.57;54.67;;;;;;;12.62;98.56;102160.41;5053819;28;20036;-74
2021/09/23 03:43:19;;;;;;;123.65;51.85;;;;;;;12.59;98.91;102157.97;5053409;28;20064;-74
2021/09/23 03:45:49;;;;;;;129.02;52.25;;;;;;;12.59;98.90;102167.81;5054122;28;20029;-74
2021/09/23 03:48:14;;;;;;;122.28;51.22;;;;;;;12.59;99.34;102162.47;5053259;28;20029;-74
2021/09/23 03:50:39;;;;;;;128.43;52.47;;;;;;;12.58;99.35;102163.44;5053708;28;20032;-75
2021/09/23 03:53:05;;;;;;;143.25;57.42;;;;;;;12.58;99.41;102174.97;5052766;28;20485;-75
2021/09/23 03:55:30;;;;;;;145.20;56.22;;;;;;;12.62;99.65;102178.25;5053742;28;20037;-74
2021/09/23 03:57:56;;;;;;;172.70;63.78;;;;;;;12.66;100.00;102175.22;5053341;28;20029;-74
2021/09/23 04:00:23;;;;;;;146.13;55.00;;;;;;;12.70;99.79;102174.03;5052913;28;20041;-74
2021/09/23 04:02:48;;;;;;;146.48;55.70;;;;;;;12.74;100.00;102173.78;5053620;28;20037;-74
2021/09/23 04:05:14;;;;;;;143.98;57.00;;;;;;;12.79;100.00;102171.59;5052889;28;20037;-75
2021/09/23 04:07:40;;;;;;;121.22;49.80;;;;;;;12.83;100.00;102170.38;5053203;28;20049;-75
2021/09/23 04:10:07;;;;;;;122.40;49.35;;;;;;;12.92;100.00;102166.13;5052547;28;20061;-74
2021/09/23 04:12:33;;;;;;;70.53;31.95;;;;;;;13.10;100.00;102177.16;5053312;28;20033;-74
2021/09/23 04:14:59;;;;;;;65.95;27.33;;;;;;;13.26;100.00;102169.63;5053666;28;20063;-75
2021/09/23 04:17:24;;;;;;;46.50;20.85;;;;;;;13.42;100.00;102169.25;5052412;28;20064;-74
2021/09/23 04:19:50;;;;;;;33.45;17.88;;;;;;;13.64;98.66;102162.97;5053422;28;20060;-74
2021/09/23 04:22:16;;;;;;;28.00;15.48;;;;;;;13.84;96.89;102152.44;5052403;28;20066;-74
2021/09/23 04:24:41;;;;;;;32.70;15.40;;;;;;;14.01;94.89;102138.50;5053154;28;20029;-74
2021/09/23 04:27:07;;;;;;;28.23;14.80;;;;;;;14.14;94.65;102137.44;5052237;28;20052;-75
2021/09/23 04:29:32;;;;;;;29.33;14.32;;;;;;;14.23;93.71;102120.63;5053276;28;20040;-73
2021/09/23 04:31:58;;;;;;;30.15;14.57;;;;;;;14.24;92.91;102123.16;5051768;28;20029;-74
2021/09/23 04:34:24;;;;;;;25.77;14.50;;;;;;;14.24;92.83;102114.25;5052414;28;20033;-74
2021/09/23 04:36:49;;;;;;;23.67;14.02;;;;;;;14.21;92.73;102109.16;5052849;28;20473;-74
2021/09/23 04:39:17;;;;;;;28.52;14.85;;;;;;;14.20;92.62;102094.94;5052378;28;20029;-73
2021/09/23 04:41:43;;;;;;;24.10;14.25;;;;;;;14.21;93.07;102088.63;5052955;28;20048;-73
2021/09/23 04:44:08;;;;;;;27.20;13.38;;;;;;;14.28;92.65;102091.59;5052119;28;20461;-74
2021/09/23 04:46:33;;;;;;;22.00;13.45;;;;;;;14.32;92.14;102078.81;5052692;28;20032;-73
2021/09/23 04:49:00;;;;;;;21.02;12.13;;;;;;;14.36;91.80;102077.56;5052856;28;20036;-74
2021/09/23 04:51:26;;;;;;;24.95;11.40;;;;;;;14.40;90.74;102063.75;5052031;28;20047;-73
2021/09/23 04:53:52;;;;;;;19.98;11.02;;;;;;;14.43;90.08;102073.38;5052686;28;20025;-74
2021/09/23 04:56:17;;;;;;;21.30;10.25;;;;;;;14.42;89.22;102072.53;5052015;28;20056;-75
2021/09/23 04:58:43;;;;;;;15.63;9.15;;;;;;;14.42;88.63;102071.66;5052160;28;20043;-74
2021/09/23 05:01:08;;;;;;;21.13;9.35;;;;;;;14.42;88.76;102072.53;5052622;28;20044;-74
2021/09/23 05:03:34;;;;;;;18.15;8.65;;;;;;;14.38;88.64;102063.06;5051995;28;20030;-73
2021/09/23 05:05:59;;;;;;;20.33;9.63;;;;;;;14.35;88.80;102065.16;5052020;28;20087;-73
2021/09/23 05:08:25;;;;;;;17.13;8.93;;;;;;;14.28;88.50;102060.31;5051503;28;20091;-74
2021/09/23 05:10:51;;;;;;;18.45;8.63;;;;;;;14.27;88.98;102055.09;5051975;28;20076;-73
2021/09/23 05:13:17;;;;;;;12.32;8.18;;;;;;;14.34;87.27;102048.22;5050515;28;20073;-74
2021/09/23 05:15:43;;;;;;;16.85;7.30;;;;;;;14.38;86.68;102043.47;5052098;28;20035;-72
2021/09/23 05:18:09;;;;;;;16.15;8.18;;;;;;;14.39;86.60;102043.34;5052347;28;20500;-73
2021/09/23 05:20:34;;;;;;;21.63;7.90;;;;;;;14.36;85.88;102050.78;5051627;28;20048;-74
2021/09/23 05:23:00;;;;;;;20.23;7.57;;;;;;;14.33;85.68;102049.25;5052304;28;20029;-73
2021/09/23 05:25:27;;;;;;;14.43;6.95;;;;;;;14.34;86.06;102044.72;5051653;28;20112;-72
2021/09/23 05:27:53;;;;;;;15.40;7.82;;;;;;;14.35;85.58;102041.06;5052225;28;20064;-73
2021/09/23 05:30:18;;;;;;;18.40;7.10;;;;;;;14.40;85.15;102036.97;5051605;28;20436;-73
2021/09/23 05:32:44;;;;;;;14.32;7.38;;;;;;;14.42;85.09;102039.53;5048564;28;20025;-73
2021/09/23 05:35:10;;;;;;;19.95;7.38;;;;;;;14.39;85.42;102046.03;5049567;28;20082;-74
2021/09/23 05:37:36;;;;;;;13.43;7.63;;;;;;;14.41;85.27;102043.22;5048845;28;20037;-74
2021/09/23 05:40:01;;;;;;;23.42;8.32;;;;;;;14.43;84.47;102041.22;5049114;28;20560;-75
2021/09/23 05:42:26;;;;;;;12.38;6.70;;;;;;;14.40;84.58;102036.97;5048423;28;20068;-74
2021/09/23 05:44:52;;;;;;;18.20;6.70;;;;;;;14.40;84.89;102039.66;5048795;28;20500;-74
2021/09/23 05:47:17;;;;;;;14.90;7.28;;;;;;;14.41;84.56;102049.41;5048710;28;20044;-76
2021/09/23 05:49:43;;;;;;;19.77;7.85;;;;;;;14.48;84.44;102051.53;5049211;28;20120;-74
2021/09/23 05:52:08;;;;;;;14.80;7.38;;;;;;;14.58;84.27;102052.41;5049201;28;20061;-75
2021/09/23 05:54:34;;;;;;;15.10;7.68;;;;;;;14.67;83.96;102038.22;5048625;28;20036;-74
2021/09/23 05:56:59;;;;;;;13.27;6.93;;;;;;;14.75;84.94;102042.91;5048873;28;20539;-74
2021/09/23 05:59:26;;;;;;;17.88;7.93;;;;;;;14.80;83.76;102036.16;5048394;28;20053;-74
2021/09/23 06:01:54;;;;;;;21.92;7.90;;;;;;;14.83;84.10;102044.91;5047954;28;20056;-72
2021/09/23 06:04:20;;;;;;;14.57;7.60;;;;;;;14.84;84.09;102042.09;5048401;28;20530;-73
2021/09/23 06:06:46;;;;;;;16.92;7.05;;;;;;;14.82;83.18;102044.06;5047812;28;20112;-72
2021/09/23 06:09:11;;;;;;;14.65;6.93;;;;;;;14.86;82.04;102052.69;5048310;28;20063;-72
2021/09/23 06:11:39;;;;;;;21.77;6.47;;;;;;;14.89;81.92;102055.09;5045553;28;20048;-72
2021/09/23 06:14:05;;;;;;;9.63;5.47;;;;;;;14.93;81.24;102056.50;5047316;28;20494;-71
2021/09/23 06:16:30;;;;;;;17.30;5.88;;;;;;;14.94;80.15;102044.78;5051891;28;20159;-72
2021/09/23 06:18:55;;;;;;;12.48;5.32;;;;;;;14.99;80.08;102048.75;5055558;28;20037;-72
2021/09/23 06:21:21;;;;;;;14.93;5.47;;;;;;;15.03;79.60;102048.47;5054545;28;20068;-74
2021/09/23 06:23:46;;;;;;;12.57;5.75;;;;;;;15.05;79.35;102046.47;5054355;28;20021;-72
2021/09/23 06:26:11;;;;;;;19.40;5.75;;;;;;;15.12;78.94;102053.84;5055187;28;20182;-72
2021/09/23 06:28:37;;;;;;;15.73;5.72;;;;;;;15.21;77.88;102040.59;5055018;28;20033;-72
2021/09/23 06:31:02;;;;;;;13.00;5.75;;;;;;;15.27;78.44;102037.34;5055411;28;20037;-72
2021/09/23 06:33:28;;;;;;;10.73;5.25;;;;;;;15.27;78.15;102031.97;5053424;28;20043;-72
2021/09/23 06:35:54;;;;;;;11.20;6.18;;;;;;;15.29;78.40;102040.75;5055123;28;20542;-72
2021/09/23 06:38:20;;;;;;;13.27;5.57;;;;;;;15.27;78.09;102035.53;5054195;28;20030;-73
2021/09/23 06:40:45;;;;;;;16.85;5.82;;;;;;;15.28;78.15;102041.72;5054568;28;20032;-72
2021/09/23 06:43:11;;;;;;;12.02;5.90;;;;;;;15.27;78.12;102038.19;5055312;28;20037;-72
2021/09/23 06:45:37;;;;;;;21.20;6.30;;;;;;;15.27;78.48;102030.16;5054592;28;20037;-72
2021/09/23 06:48:02;;;;;;;14.70;5.40;;;;;;;15.27;78.20;102029.28;5055620;28;20524;-72
2021/09/23 06:50:28;;;;;;;13.52;5.70;;;;;;;15.30;78.48;102023.66;5053216;28;20045;-72
2021/09/23 06:52:53;;;;;;;11.25;5.57;;;;;;;15.37;78.08;102019.41;5054960;28;20061;-72
2021/09/23 06:55:19;;;;;;;15.57;5.80;;;;;;;15.44;78.05;102009.81;5055124;28;20025;-72
2021/09/23 06:57:44;;;;;;;14.25;5.90;;;;;;;15.49;77.28;102010.22;5055003;28;20040;-72
2021/09/23 07:00:10;;;;;;;20.50;5.57;;;;;;;15.53;76.95;102002.75;5055092;28;20086;-72
2021/09/23 07:02:36;;;;;;;10.50;4.80;;;;;;;15.50;77.81;101986.94;5054541;28;20078;-72
2021/09/23 07:05:02;;;;;;;11.35;5.20;;;;;;;15.48;77.22;101987.09;5055090;28;20029;-71
2021/09/23 07:07:27;;;;;;;11.30;5.82;;;;;;;15.50;77.76;102000.34;5054468;28;20362;-74
2021/09/23 07:09:53;;;;;;;10.70;5.20;;;;;;;15.51;77.32;101996.69;5054960;28;20033;-73
2021/09/23 07:12:19;;;;;;;9.13;4.72;;;;;;;15.51;77.94;101996.69;5054521;28;20064;-73
2021/09/23 07:14:44;;;;;;;14.07;4.18;;;;;;;15.52;77.52;102009.97;5053819;28;20068;-73
2021/09/23 07:17:09;;;;;;;16.35;4.55;;;;;;;15.59;76.89;101995.97;5054489;28;20037;-73
2021/09/23 07:19:35;;;;;;;16.20;4.90;;;;;;;15.66;76.53;101997.09;5053559;28;20053;-73
2021/09/23 07:22:03;;;;;;;13.80;4.70;;;;;;;15.75;76.37;101985.50;5054286;28;20043;-72
2021/09/23 07:24:29;;;;;;;10.38;4.50;;;;;;;15.93;75.60;101982.06;5054419;28;20033;-72
2021/09/23 07:26:54;;;;;;;14.52;4.50;;;;;;;16.12;75.52;101968.59;5054114;28;20037;-72
2021/09/23 07:29:20;;;;;;;15.63;4.45;;;;;;;16.26;74.96;101971.75;5053530;28;20074;-72
2021/09/23 07:31:45;;;;;;;16.27;4.32;;;;;;;16.39;74.24;101962.38;5052217;28;20033;-72
2021/09/23 07:34:12;;;;;;;13.48;4.50;;;;;;;16.57;73.93;101948.97;5053898;28;20036;-73
2021/09/23 07:36:37;;;;;;;9.20;4.13;;;;;;;16.69;72.29;101954.09;5053557;28;20033;-73
2021/09/23 07:39:06;;;;;;;9.70;4.07;;;;;;;16.73;72.06;101944.75;5054318;28;20078;-72
2021/09/23 07:41:39;;;;;;;10.98;3.92;;;;;;;16.79;72.25;101948.66;5053797;28;20076;-73
2021/09/23 07:44:06;;;;;;;16.15;4.40;;;;;;;16.76;71.63;101960.56;5054130;28;20501;-72
2021/09/23 07:46:33;;;;;;;17.50;4.07;;;;;;;16.77;70.74;101964.94;5054036;28;20028;-72
2021/09/23 07:48:58;;;;;;;10.80;4.05;;;;;;;16.77;70.45;101956.06;5053856;28;20033;-72
2021/09/23 07:51:24;;;;;;;15.23;3.95;;;;;;;16.67;69.87;101967.69;5053732;28;20035;-72
2021/09/23 07:53:49;;;;;;;10.30;3.70;;;;;;;16.56;70.19;101981.34;5053173;28;20033;-72
2021/09/23 07:56:15;;;;;;;12.15;3.70;;;;;;;16.58;69.97;101982.03;5053647;28;20453;-72
2021/09/23 07:58:40;;;;;;;10.05;3.28;;;;;;;16.64;69.63;101991.34;5053253;28;20131;-73
2021/09/23 08:01:06;;;;;;;14.45;3.70;;;;;;;16.77;69.09;101988.31;5053281;28;20036;-72
2021/09/23 08:03:31;;;;;;;10.70;3.58;;;;;;;16.76;69.42;102006.25;5053895;28;20048;-73
2021/09/23 08:05:57;;;;;;;16.40;3.58;;;;;;;17.01;69.46;101995.78;5052618;28;20025;-73
2021/09/23 08:08:22;;;;;;;11.50;3.58;;;;;;;17.17;67.96;102004.00;5053218;28;20056;-72
2021/09/23 08:10:48;;;;;;;12.52;3.90;;;;;;;17.15;67.84;102006.00;5051484;28;20052;-71
2021/09/23 08:13:13;;;;;;;6.95;2.83;;;;;;;16.96;68.39;102011.50;5053550;28;20029;-72
2021/09/23 08:15:39;;;;;;;16.23;3.70;;;;;;;16.73;69.33;102014.63;5052704;28;20037;-72
2021/09/23 08:18:04;;;;;;;6.95;3.25;;;;;;;16.55;70.03;102020.78;5053391;28;20113;-72
2021/09/23 08:20:29;;;;;;;12.27;3.67;;;;;;;16.33;70.70;102013.13;5053302;28;20072;-72
2021/09/23 08:22:55;;;;;;;7.45;2.90;;;;;;;16.21;71.47;102024.06;5052667;28;20029;-72
2021/09/23 08:25:21;;;;;;;8.90;3.25;;;;;;;16.18;71.40;102023.50;5053383;28;20082;-72
2021/09/23 08:27:46;;;;;;;11.95;3.40;;;;;;;16.12;71.73;102024.97;5052266;28;20520;-72
2021/09/23 08:30:12;;;;;;;8.20;2.80;;;;;;;16.12;71.55;102016.91;5053018;28;20068;-72
2021/09/23 08:32:37;;;;;;;10.40;3.00;;;;;;;16.22;71.26;102025.75;5052763;28;20032;-72
2021/09/23 08:35:06;;;;;;;10.38;3.70;;;;;;;16.30;70.89;102033.09;5052347;28;20492;-72
2021/09/23 08:37:36;;;;;;;4.97;2.88;;;;;;;16.57;69.97;102045.69;5053057;28;20127;-71
2021/09/23 08:40:09;;;;;;;9.38;3.10;;;;;;;16.56;69.81;102043.16;5051160;28;20404;-72
2021/09/23 08:42:35;;;;;;;8.23;3.40;;;;;;;16.59;69.66;102037.47;5053115;28;20040;-71
2021/09/23 08:45:00;;;;;;;12.07;3.05;;;;;;;16.85;67.76;102028.69;5052231;28;20347;-72
2021/09/23 08:47:26;;;;;;;8.15;2.88;;;;;;;17.14;67.79;102025.84;5052804;28;20025;-72
2021/09/23 08:49:52;;;;;;;9.77;3.25;;;;;;;17.22;66.38;102020.50;5052230;28;20029;-73
2021/09/23 08:52:17;;;;;;;6.57;2.85;;;;;;;17.17;66.77;102022.84;5052731;28;20484;-72
2021/09/23 08:54:42;;;;;;;5.88;3.00;;;;;;;17.14;67.46;102019.59;5052156;28;20072;-74
2021/09/23 08:57:08;;;;;;;5.30;2.90;;;;;;;17.41;66.66;102024.06;5052523;28;20041;-73
2021/09/23 08:59:33;;;;;;;9.88;3.55;;;;;;;17.43;66.13;102022.03;5052428;28;20025;-72
2021/09/23 09:01:59;;;;;;;11.50;3.40;;;;;;;17.53;65.67;102022.81;5050644;28;20029;-72
2021/09/23 09:04:32;;;;;;;6.68;2.88;;;;;;;18.27;63.42;102011.66;5052605;28;20068;-72
2021/09/23 09:07:03;;;;;;;9.10;3.15;;;;;;;18.43;62.28;102005.50;5051625;28;20037;-72
2021/09/23 09:09:29;;;;;;;7.55;2.78;;;;;;;18.53;62.29;102005.38;5052821;28;20044;-73
2021/09/23 09:11:56;;;;;;;10.93;3.17;;;;;;;18.47;62.15;102013.09;5051803;28;20025;-72
2021/09/23 09:14:31;;;;;;;10.93;2.92;;;;;;;18.58;62.78;102001.16;5052413;28;20033;-72
2021/09/23 09:17:02;;;;;;;10.73;3.00;;;;;;;18.49;62.49;102000.28;5051920;28;20040;-72
2021/09/23 09:19:48;;;;;;;15.90;2.95;;;;;;;18.16;63.99;102002.03;5052545;28;20036;-72
2021/09/23 09:22:17;;;;;;;6.82;2.65;;;;;;;17.87;64.33;102002.31;5052424;28;20029;-72
2021/09/23 09:24:56;;;;;;;8.80;2.70;;;;;;;17.72;63.73;102004.75;5052444;28;20033;-71
2021/09/23 09:27:28;;;;;;;6.07;3.17;;;;;;;17.47;65.47;102004.59;5052208;28;20041;-72
2021/09/23 09:29:55;;;;;;;9.80;2.97;;;;;;;17.32;66.29;102012.38;5051572;28;20039;-73
2021/09/23 09:32:33;;;;;;;11.48;3.45;;;;;;;17.02;66.87;102008.25;5052773;28;20373;-71
2021/09/23 09:34:58;;;;;;;11.35;3.03;;;;;;;16.94;68.13;102008.97;5051388;28;20465;-72
2021/09/23 09:37:24;;;;;;;14.30;3.70;;;;;;;16.86;68.42;102015.09;5051981;28;20029;-72
2021/09/23 09:39:56;;;;;;;9.30;3.08;;;;;;;16.90;68.46;102021.91;5051715;28;20109;-73
2021/09/23 09:42:21;;;;;;;11.38;3.15;;;;;;;16.95;67.03;102015.22;5052147;28;20106;-72
2021/09/23 09:44:58;;;;;;;13.98;3.20;;;;;;;16.85;67.08;102021.47;5050747;28;20061;-73
2021/09/23 09:47:34;;;;;;;11.38;3.10;;;;;;;16.85;67.26;102017.94;5052085;28;20159;-73
2021/09/23 09:50:11;;;;;;;11.88;2.95;;;;;;;16.85;67.43;102009.88;5051248;28;20108;-72
2021/09/23 09:52:36;;;;;;;8.75;2.80;;;;;;;16.96;66.61;102016.91;5055649;28;20116;-72
2021/09/23 09:55:09;;;;;;;7.40;3.20;;;;;;;17.06;66.85;102026.59;5055506;28;20167;-72
2021/09/23 09:57:44;;;;;;;8.18;3.50;;;;;;;17.08;66.85;102016.53;5056238;28;20047;-72
2021/09/23 10:00:10;;;;;;;9.10;3.00;;;;;;;17.26;66.02;102024.59;5055162;28;20170;-73
2021/09/23 10:02:36;;;;;;;9.82;2.97;;;;;;;17.76;64.91;102016.91;5055254;28;20044;-74
2021/09/23 10:05:02;;;;;;;10.20;2.67;;;;;;;18.61;62.38;102019.72;5055319;28;20033;-72
2021/09/23 10:07:28;;;;;;;8.80;3.00;;;;;;;19.38;59.13;102010.59;5055187;28;20480;-71
2021/09/23 10:09:56;;;;;;;9.25;2.63;;;;;;;19.87;57.61;102015.09;5055169;28;20095;-73
2021/09/23 10:12:22;;;;;;;11.70;2.80;;;;;;;20.40;56.51;102013.59;5055564;28;20036;-72
2021/09/23 10:14:49;;;;;;;11.48;3.00;;;;;;;20.78;54.71;102013.78;5055376;28;20147;-74
2021/09/23 10:17:15;;;;;;;13.48;2.60;;;;;;;20.96;54.40;102007.25;5053977;28;20435;-72
2021/09/23 10:19:43;;;;;;;9.13;2.47;;;;;;;20.22;55.79;102013.00;5055537;28;20025;-72
2021/09/23 10:22:12;;;;;;;11.48;2.63;;;;;;;20.21;56.24;102001.34;5054843;28;20033;-73
2021/09/23 10:24:40;;;;;;;10.50;2.72;;;;;;;20.74;54.34;101993.50;5055462;28;20533;-73
2021/09/23 10:27:57;;;;;;;6.50;2.20;;;;;;;21.37;53.18;101992.53;5054675;28;20040;-73
2021/09/23 10:29:53;;;;;;;10.57;2.45;;;;;;;21.80;51.97;101993.66;5053992;28;20044;-73
2021/09/23 10:32:19;;;;;;;6.72;2.10;;;;;;;22.05;51.25;101998.81;5054873;28;20044;-73
2021/09/23 10:34:48;;;;;;;11.57;2.42;;;;;;;22.32;49.92;101991.91;5055363;28;20068;-73
2021/09/23 10:37:14;;;;;;;8.60;2.30;;;;;;;21.95;51.40;101985.53;5054435;28;20443;-73
2021/09/23 10:39:41;;;;;;;7.65;2.13;;;;;;;22.25;50.76;101981.97;5055302;28;20039;-73
2021/09/23 10:42:11;;;;;;;10.55;2.20;;;;;;;23.03;48.45;101974.94;5054512;28;20393;-73
2021/09/23 10:44:38;;;;;;;15.88;1.92;;;;;;;23.35;46.96;101978.19;5055361;28;20086;-72
2021/09/23 10:47:06;;;;;;;8.30;1.98;;;;;;;23.26;47.01;101975.78;5054450;28;20115;-73
2021/09/23 10:49:32;;;;;;;8.70;1.90;;;;;;;22.85;47.58;101967.25;5055073;28;20025;-73
2021/09/23 10:51:58;;;;;;;7.57;1.60;;;;;;;22.44;48.27;101967.88;5054961;28;20120;-73
2021/09/23 10:54:24;;;;;;;7.72;2.10;;;;;;;22.18;49.34;101954.78;5054881;28;20078;-73
2021/09/23 10:56:50;;;;;;;10.70;2.03;;;;;;;21.91;51.52;101965.25;5054927;28;20033;-73
2021/09/23 10:59:17;;;;;;;9.35;1.88;;;;;;;21.44;52.18;101950.19;5054148;28;20127;-72
2021/09/23 11:01:45;;;;;;;7.68;2.30;;;;;;;21.21;52.38;101953.75;5054684;28;20063;-73
2021/09/23 11:04:12;;;;;;;10.85;2.05;;;;;;;21.13;52.50;101938.44;5053036;28;20033;-72
2021/09/23 11:06:40;;;;;;;9.07;2.05;;;;;;;21.02;53.01;101944.31;5054683;28;20090;-74
2021/09/23 11:09:18;;;;;;;12.95;2.42;;;;;;;20.85;53.31;101940.03;5052249;28;20497;-75
2021/09/23 11:12:01;;;;;;;10.32;2.38;;;;;;;20.69;54.19;101936.44;5054235;28;20029;-72